createdAt,value
2024-02-26T00:00:47.713Z,8.27
2024-02-26T00:03:50.519Z,6.70
2024-02-26T00:06:55.483Z,8.00
2024-02-26T00:09:58.218Z,6.95
2024-02-26T00:13:00.640Z,6.20
2024-02-26T00:16:04.801Z,7.37
2024-02-26T00:19:07.357Z,7.23
2024-02-26T00:22:10.167Z,7.00
2024-02-26T00:25:13.825Z,6.72
2024-02-26T00:28:16.744Z,8.07
2024-02-26T00:31:19.147Z,7.65
2024-02-26T00:34:21.991Z,6.50
2024-02-26T00:37:24.448Z,7.43
2024-02-26T00:40:27.243Z,7.25
2024-02-26T00:43:29.805Z,7.97
2024-02-26T00:46:32.500Z,7.55
2024-02-26T00:49:34.940Z,7.77
2024-02-26T00:52:37.606Z,7.70
2024-02-26T00:55:40.044Z,7.93
2024-02-26T00:58:42.703Z,8.43
2024-02-26T01:01:45.038Z,8.65
2024-02-26T01:04:47.815Z,8.83
2024-02-26T01:07:50.336Z,7.40
2024-02-26T01:10:53.097Z,4.47
2024-02-26T01:13:57.782Z,8.02
2024-02-26T01:17:00.824Z,6.72
2024-02-26T01:20:03.588Z,6.83
2024-02-26T01:23:06.369Z,5.93
2024-02-26T01:26:08.767Z,5.18
2024-02-26T01:29:11.511Z,6.03
2024-02-26T01:32:14.015Z,4.93
2024-02-26T01:35:16.896Z,7.33
2024-02-26T01:38:19.283Z,3.90
2024-02-26T01:41:21.975Z,5.82
2024-02-26T01:44:24.339Z,7.47
2024-02-26T01:47:28.244Z,5.50
2024-02-26T01:50:30.619Z,6.97
2024-02-26T01:53:33.329Z,4.30
2024-02-26T01:56:36.570Z,7.03
2024-02-26T01:59:41.207Z,5.22
2024-02-26T02:02:45.801Z,5.10
2024-02-26T02:05:48.544Z,6.90
2024-02-26T02:08:50.949Z,5.03
2024-02-26T02:11:53.888Z,6.95
2024-02-26T02:14:56.453Z,6.95
2024-02-26T02:17:59.214Z,5.85
2024-02-26T02:21:02.359Z,5.80
2024-02-26T02:24:05.443Z,6.60
2024-02-26T02:27:07.935Z,5.93
2024-02-26T02:30:12.129Z,6.50
2024-02-26T02:33:16.427Z,6.85
2024-02-26T02:36:19.288Z,8.00
2024-02-26T02:39:22.521Z,7.57
2024-02-26T02:42:25.348Z,6.57
2024-02-26T02:45:27.781Z,7.70
2024-02-26T02:48:30.723Z,7.35
2024-02-26T02:51:33.202Z,7.43
2024-02-26T02:54:36.857Z,7.17
2024-02-26T02:57:42.348Z,7.40
2024-02-26T03:00:45.498Z,5.80
2024-02-26T03:03:47.938Z,7.32
2024-02-26T03:06:50.725Z,7.87
2024-02-26T03:09:53.203Z,6.27
2024-02-26T03:12:57.307Z,6.57
2024-02-26T03:15:59.718Z,7.20
2024-02-26T03:19:02.853Z,6.75
2024-02-26T03:22:05.469Z,6.70
2024-02-26T03:25:08.758Z,8.07
2024-02-26T03:28:11.193Z,7.35
2024-02-26T03:31:13.953Z,7.93
2024-02-26T03:34:16.535Z,7.62
2024-02-26T03:37:19.296Z,7.47
2024-02-26T03:40:21.722Z,7.40
2024-02-26T03:43:27.155Z,6.87
2024-02-26T03:46:29.650Z,7.32
2024-02-26T03:49:32.426Z,6.53
2024-02-26T03:52:35.124Z,7.20
2024-02-26T03:55:38.142Z,5.77
2024-02-26T03:58:40.809Z,5.95
2024-02-26T04:01:48.299Z,7.28
2024-02-26T04:04:51.056Z,6.10
2024-02-26T04:07:53.571Z,5.67
2024-02-26T04:10:56.284Z,6.33
2024-02-26T04:13:58.743Z,6.82
2024-02-26T04:17:01.465Z,6.37
2024-02-26T04:20:04.954Z,7.30
2024-02-26T04:23:07.657Z,7.23
2024-02-26T04:26:10.021Z,7.57
2024-02-26T04:29:12.881Z,6.70
2024-02-26T04:32:15.246Z,8.15
2024-02-26T04:35:18.337Z,6.65
2024-02-26T04:38:20.752Z,7.57
2024-02-26T04:41:23.399Z,6.03
2024-02-26T04:44:25.843Z,6.85
2024-02-26T04:47:28.529Z,8.20
2024-02-26T04:50:30.908Z,6.78
2024-02-26T04:53:33.546Z,6.80
2024-02-26T04:56:35.895Z,4.33
2024-02-26T04:59:38.754Z,8.52
2024-02-26T05:02:41.221Z,7.35
2024-02-26T05:05:44.672Z,7.68
2024-02-26T05:08:47.295Z,7.93
2024-02-26T05:11:50.004Z,7.93
2024-02-26T05:14:52.398Z,5.85
2024-02-26T05:17:55.167Z,8.10
2024-02-26T05:20:57.637Z,7.28
2024-02-26T05:24:00.416Z,7.73
2024-02-26T05:27:03.126Z,6.37
2024-02-26T05:30:06.669Z,7.60
2024-02-26T05:33:13.785Z,7.93
2024-02-26T05:36:23.347Z,7.80
2024-02-26T05:39:25.964Z,6.83
2024-02-26T05:42:28.715Z,7.60
2024-02-26T05:45:31.275Z,7.05
2024-02-26T05:48:34.078Z,5.68
2024-02-26T05:51:36.906Z,6.72
2024-02-26T05:54:39.542Z,6.47
2024-02-26T05:57:42.136Z,6.80
2024-02-26T06:00:44.905Z,6.05
2024-02-26T06:03:47.687Z,8.32
2024-02-26T06:06:50.816Z,9.18
2024-02-26T06:09:53.732Z,6.60
2024-02-26T06:12:56.133Z,9.33
2024-02-26T06:15:58.821Z,7.78
2024-02-26T06:19:01.715Z,6.53
2024-02-26T06:22:04.676Z,6.85
2024-02-26T06:25:07.350Z,4.53
2024-02-26T06:28:10.063Z,7.67
2024-02-26T06:31:12.516Z,7.93
2024-02-26T06:34:15.272Z,6.18
2024-02-26T06:37:17.687Z,6.68
2024-02-26T06:40:20.802Z,7.57
2024-02-26T06:43:23.167Z,6.67
2024-02-26T06:46:27.071Z,7.37
2024-02-26T06:49:30.089Z,6.87
2024-02-26T06:52:32.915Z,7.53
2024-02-26T06:55:35.673Z,8.37
2024-02-26T06:58:38.416Z,4.67
2024-02-26T07:01:44.326Z,6.40
2024-02-26T07:04:47.501Z,8.57
2024-02-26T07:07:50.139Z,7.80
2024-02-26T07:10:53.254Z,7.10
2024-02-26T07:13:56.210Z,7.33
2024-02-26T07:16:59.572Z,7.00
2024-02-26T07:20:03.451Z,7.68
2024-02-26T07:23:07.890Z,6.18
2024-02-26T07:26:12.781Z,6.87
2024-02-26T07:29:15.427Z,7.83
2024-02-26T07:32:18.377Z,6.05
2024-02-26T07:35:20.983Z,6.60
2024-02-26T07:38:32.204Z,5.53
2024-02-26T07:41:48.253Z,6.70
2024-02-26T07:44:50.934Z,7.00
2024-02-26T07:47:53.758Z,6.55
2024-02-26T07:50:56.306Z,6.28
2024-02-26T07:53:59.040Z,7.07
2024-02-26T07:57:02.485Z,6.13
2024-02-26T08:00:08.600Z,6.37
2024-02-26T08:03:11.715Z,5.55
2024-02-26T08:06:14.466Z,4.68
2024-02-26T08:09:17.318Z,4.62
2024-02-26T08:12:19.944Z,5.40
2024-02-26T08:15:22.686Z,5.90
2024-02-26T08:18:25.459Z,5.55
2024-02-26T08:21:28.591Z,5.37
2024-02-26T08:24:31.418Z,5.60
2024-02-26T08:27:34.577Z,4.73
2024-02-26T08:30:37.085Z,4.13
2024-02-26T08:33:40.060Z,4.57
2024-02-26T08:36:44.368Z,4.70
2024-02-26T08:39:47.033Z,4.22
2024-02-26T08:42:49.816Z,4.87
2024-02-26T08:45:52.472Z,4.27
2024-02-26T08:48:55.117Z,4.10
2024-02-26T08:51:57.998Z,3.92
2024-02-26T08:55:00.587Z,2.67
2024-02-26T08:58:03.346Z,4.40
2024-02-26T09:01:05.866Z,3.03
2024-02-26T09:04:09.033Z,3.15
2024-02-26T09:07:11.496Z,2.85
2024-02-26T09:10:14.300Z,2.83
2024-02-26T09:13:16.759Z,2.10
2024-02-26T09:16:19.428Z,2.13
2024-02-26T09:19:21.941Z,2.20
2024-02-26T09:22:24.684Z,1.90
2024-02-26T09:25:27.135Z,2.17
2024-02-26T09:28:32.790Z,1.80
2024-02-26T09:31:35.335Z,1.83
2024-02-26T09:34:38.495Z,1.70
2024-02-26T09:37:41.297Z,1.77
2024-02-26T09:40:44.091Z,1.37
2024-02-26T09:43:49.708Z,1.93
2024-02-26T09:46:53.538Z,2.83
2024-02-26T09:49:57.517Z,1.80
2024-02-26T09:53:01.321Z,1.70
2024-02-26T09:56:04.376Z,1.87
2024-02-26T09:59:11.551Z,1.40
2024-02-26T10:02:15.166Z,1.57
2024-02-26T10:05:21.530Z,1.27
2024-02-26T10:08:24.173Z,1.20
2024-02-26T10:11:26.979Z,1.00
2024-02-26T10:14:29.339Z,1.10
2024-02-26T10:17:32.732Z,1.20
2024-02-26T10:20:35.136Z,1.73
2024-02-26T10:23:37.859Z,1.08
2024-02-26T10:26:47.385Z,1.48
2024-02-26T10:29:52.915Z,1.20
2024-02-26T10:32:55.713Z,1.40
2024-02-26T10:35:58.708Z,0.95
2024-02-26T10:39:03.506Z,1.02
2024-02-26T10:42:10.947Z,1.25
2024-02-26T10:45:13.596Z,1.50
2024-02-26T10:48:16.606Z,1.23
2024-02-26T10:51:30.526Z,2.17
2024-02-26T10:54:34.221Z,1.25
2024-02-26T10:57:41.520Z,1.25
2024-02-26T11:00:45.096Z,1.30
2024-02-26T11:03:50.176Z,1.30
2024-02-26T11:06:56.910Z,0.95
2024-02-26T11:10:04.476Z,1.30
2024-02-26T11:13:07.585Z,1.40
2024-02-26T11:16:10.432Z,1.20
2024-02-26T11:19:15.193Z,1.27
2024-02-26T11:22:21.578Z,1.70
2024-02-26T11:25:27.981Z,1.52
2024-02-26T11:28:31.363Z,1.42
2024-02-26T11:31:37.114Z,1.30
2024-02-26T11:34:40.661Z,1.40
2024-02-26T11:37:52.758Z,1.12
2024-02-26T11:40:55.390Z,1.30
2024-02-26T11:44:06.701Z,1.40
2024-02-26T11:47:19.885Z,1.50
2024-02-26T11:50:40.654Z,1.60
2024-02-26T11:53:49.883Z,1.60
2024-02-26T11:56:53.501Z,1.60
2024-02-26T12:00:08.461Z,2.10
2024-02-26T12:03:13.409Z,1.30
2024-02-26T12:06:15.892Z,1.70
2024-02-26T12:09:37.406Z,1.40
2024-02-26T12:12:40.649Z,1.60
2024-02-26T12:15:56.565Z,0.90
2024-02-26T12:19:00.447Z,1.50
2024-02-26T12:22:03.729Z,1.57
2024-02-26T12:25:06.906Z,1.80
2024-02-26T12:28:09.605Z,1.40
2024-02-26T12:31:11.999Z,2.05
2024-02-26T12:34:15.155Z,1.73
2024-02-26T12:37:17.915Z,1.33
2024-02-26T12:40:21.009Z,1.60
2024-02-26T12:43:23.691Z,1.35
2024-02-26T12:46:26.562Z,2.12
2024-02-26T12:49:29.040Z,1.73
2024-02-26T12:52:36.518Z,1.50
2024-02-26T12:55:41.236Z,1.60
2024-02-26T12:58:44.568Z,1.58
2024-02-26T13:01:47.021Z,1.83
2024-02-26T13:04:50.267Z,1.47
2024-02-26T13:07:54.216Z,1.67
2024-02-26T13:10:57.120Z,0.82
2024-02-26T13:13:59.901Z,1.40
2024-02-26T13:17:03.375Z,1.00
2024-02-26T13:20:07.024Z,1.70
2024-02-26T13:23:13.528Z,1.27
2024-02-26T13:26:16.045Z,1.40
2024-02-26T13:29:21.733Z,1.25
2024-02-26T13:32:24.277Z,1.45
2024-02-26T13:35:27.723Z,1.40
2024-02-26T13:38:30.436Z,1.00
2024-02-26T13:41:33.517Z,1.40
2024-02-26T13:44:40.600Z,1.60
2024-02-26T13:47:43.508Z,0.90
2024-02-26T13:50:47.186Z,1.03
2024-02-26T13:53:50.360Z,1.07
2024-02-26T13:56:53.652Z,1.90
2024-02-26T13:59:56.700Z,3.08
2024-02-26T14:02:59.955Z,3.25
2024-02-26T14:06:03.057Z,1.20
2024-02-26T14:09:06.098Z,3.00
2024-02-26T14:12:09.335Z,3.85
2024-02-26T14:15:11.857Z,4.40
2024-02-26T14:18:14.732Z,3.28
2024-02-26T14:21:17.311Z,2.70
2024-02-26T14:24:24.441Z,2.40
2024-02-26T14:27:27.685Z,5.12
2024-02-26T14:30:30.509Z,6.93
2024-02-26T14:33:33.048Z,5.82
2024-02-26T14:36:35.967Z,2.80
2024-02-26T14:39:38.613Z,4.20
2024-02-26T14:42:42.060Z,3.97
2024-02-26T14:45:44.646Z,2.85
2024-02-26T14:48:47.487Z,2.45
2024-02-26T14:51:49.941Z,1.57
2024-02-26T14:54:52.595Z,1.80
2024-02-26T14:57:55.089Z,2.58
2024-02-26T15:00:58.143Z,3.25
2024-02-26T15:04:01.851Z,1.87
2024-02-26T15:07:05.357Z,1.63
2024-02-26T15:10:08.519Z,1.47
2024-02-26T15:13:11.309Z,1.40
2024-02-26T15:16:21.869Z,1.35
2024-02-26T15:19:24.774Z,1.27
2024-02-26T15:22:27.859Z,1.47
2024-02-26T15:25:31.002Z,1.70
2024-02-26T15:28:33.408Z,1.73
2024-02-26T15:31:37.290Z,1.85
2024-02-26T15:34:39.969Z,1.83
2024-02-26T15:37:43.164Z,0.97
2024-02-26T15:40:47.866Z,1.20
2024-02-26T15:43:51.660Z,1.40
2024-02-26T15:46:54.568Z,1.60
2024-02-26T15:49:58.608Z,2.20
2024-02-26T15:53:01.528Z,2.13
2024-02-26T15:56:04.396Z,1.90
2024-02-26T15:59:06.840Z,3.05
2024-02-26T16:02:09.861Z,5.85
2024-02-26T16:05:13.894Z,5.43
2024-02-26T16:08:21.902Z,5.63
2024-02-26T16:11:24.836Z,5.43
2024-02-26T16:14:47.757Z,5.65
2024-02-26T16:17:53.181Z,8.10
2024-02-26T16:20:55.880Z,24.17
2024-02-26T16:24:00.101Z,3.83
2024-02-26T16:27:02.613Z,19.47
2024-02-26T16:30:06.125Z,11.38
2024-02-26T16:33:08.754Z,6.97
2024-02-26T16:36:13.571Z,2.40
2024-02-26T16:39:16.122Z,3.93
2024-02-26T16:42:19.772Z,3.83
2024-02-26T16:45:22.512Z,4.57
2024-02-26T16:48:25.402Z,1.85
2024-02-26T16:51:27.957Z,1.40
2024-02-26T16:54:31.073Z,1.53
2024-02-26T16:57:33.841Z,1.83
2024-02-26T17:00:36.850Z,2.17
2024-02-26T17:03:39.963Z,2.33
2024-02-26T17:06:43.005Z,1.70
2024-02-26T17:09:45.549Z,1.93
2024-02-26T17:12:48.234Z,1.67
2024-02-26T17:15:50.806Z,1.90
2024-02-26T17:18:54.162Z,1.50
2024-02-26T17:21:56.797Z,1.65
2024-02-26T17:24:59.896Z,2.77
2024-02-26T17:28:03.010Z,3.43
2024-02-26T17:31:05.681Z,2.22
2024-02-26T17:34:10.106Z,3.42
2024-02-26T17:37:12.865Z,2.42
2024-02-26T17:40:15.450Z,2.13
2024-02-26T17:43:18.802Z,2.73
2024-02-26T17:46:21.610Z,2.20
2024-02-26T17:49:27.174Z,2.70
2024-02-26T17:52:35.191Z,3.00
2024-02-26T17:55:37.890Z,3.30
2024-02-26T17:58:42.988Z,2.57
2024-02-26T18:01:45.756Z,3.80
2024-02-26T18:04:48.528Z,2.20
2024-02-26T18:07:52.266Z,2.80
2024-02-26T18:10:54.924Z,3.30
2024-02-26T18:13:58.449Z,3.50
2024-02-26T18:17:01.257Z,3.72
2024-02-26T18:20:05.643Z,5.05
2024-02-26T18:23:08.348Z,3.47
2024-02-26T18:26:11.525Z,2.80
2024-02-26T18:29:14.169Z,4.17
2024-02-26T18:32:17.184Z,3.28
2024-02-26T18:35:20.430Z,2.70
2024-02-26T18:38:22.979Z,2.72
2024-02-26T18:41:26.097Z,2.50
2024-02-26T18:44:28.683Z,2.07
2024-02-26T18:47:31.984Z,2.62
2024-02-26T18:50:34.465Z,2.70
2024-02-26T18:53:37.370Z,2.53
2024-02-26T18:56:39.800Z,2.47
2024-02-26T18:59:44.532Z,3.60
2024-02-26T19:02:47.391Z,5.10
2024-02-26T19:05:50.263Z,4.62
2024-02-26T19:08:53.290Z,3.50
2024-02-26T19:11:57.786Z,3.10
2024-02-26T19:15:00.583Z,3.00
2024-02-26T19:18:05.612Z,3.62
2024-02-26T19:21:08.550Z,3.20
2024-02-26T19:24:11.377Z,2.62
2024-02-26T19:27:15.037Z,2.70
2024-02-26T19:30:18.000Z,2.60
2024-02-26T19:33:22.297Z,2.70
2024-02-26T19:36:25.198Z,3.65
2024-02-26T19:39:29.045Z,3.60
2024-02-26T19:42:31.980Z,3.30
2024-02-26T19:45:34.606Z,3.60
2024-02-26T19:48:39.837Z,4.00
2024-02-26T19:51:43.602Z,4.00
2024-02-26T19:54:46.788Z,3.65
2024-02-26T19:57:49.574Z,3.60
2024-02-26T20:00:52.590Z,3.80
2024-02-26T20:03:55.343Z,3.70
2024-02-26T20:06:57.874Z,3.92
2024-02-26T20:10:00.749Z,3.78
2024-02-26T20:13:03.935Z,3.83
2024-02-26T20:16:07.639Z,4.00
2024-02-26T20:19:12.550Z,3.65
2024-02-26T20:22:15.442Z,3.62
2024-02-26T20:25:17.907Z,3.20
2024-02-26T20:28:20.609Z,3.60
2024-02-26T20:31:22.977Z,3.20
2024-02-26T20:34:25.990Z,2.85
2024-02-26T20:37:29.612Z,3.62
2024-02-26T20:40:33.118Z,2.33
2024-02-26T20:43:35.672Z,2.33
2024-02-26T20:46:44.523Z,2.60
2024-02-26T20:49:47.495Z,2.12
2024-02-26T20:52:51.754Z,2.80
2024-02-26T20:55:54.150Z,2.53
2024-02-26T20:58:56.845Z,2.70
2024-02-26T21:01:59.313Z,2.43
2024-02-26T21:05:02.178Z,2.50
2024-02-26T21:08:09.234Z,2.22
2024-02-26T21:11:16.309Z,2.75
2024-02-26T21:14:18.867Z,2.27
2024-02-26T21:17:21.565Z,2.60
2024-02-26T21:20:26.124Z,2.20
2024-02-26T21:23:28.862Z,2.80
2024-02-26T21:26:31.251Z,2.60
2024-02-26T21:29:33.984Z,2.97
2024-02-26T21:32:36.501Z,2.57
2024-02-26T21:35:39.457Z,2.28
2024-02-26T21:38:49.758Z,2.90
2024-02-26T21:41:53.423Z,2.62
2024-02-26T21:44:56.037Z,2.53
2024-02-26T21:47:58.930Z,2.57
2024-02-26T21:51:05.754Z,2.05
2024-02-26T21:54:08.455Z,2.50
2024-02-26T21:57:10.931Z,2.25
2024-02-26T22:00:14.031Z,2.90
2024-02-26T22:03:16.780Z,2.67
2024-02-26T22:06:19.314Z,2.20
2024-02-26T22:09:22.037Z,2.55
2024-02-26T22:12:24.577Z,2.50
2024-02-26T22:15:27.403Z,2.43
2024-02-26T22:18:29.992Z,2.60
2024-02-26T22:21:34.127Z,2.37
2024-02-26T22:24:37.711Z,2.78
2024-02-26T22:27:40.656Z,2.12
2024-02-26T22:30:43.153Z,2.90
2024-02-26T22:33:46.718Z,2.57
2024-02-26T22:36:50.499Z,3.00
2024-02-26T22:39:53.342Z,2.90
2024-02-26T22:42:57.071Z,2.80
2024-02-26T22:46:00.102Z,2.17
2024-02-26T22:49:02.580Z,2.50
2024-02-26T22:52:05.972Z,2.10
2024-02-26T22:55:08.706Z,2.42
2024-02-26T22:58:11.364Z,2.83
2024-02-26T23:01:13.820Z,2.30
2024-02-26T23:04:16.548Z,2.70
2024-02-26T23:07:19.102Z,2.60
2024-02-26T23:10:22.749Z,3.17
2024-02-26T23:13:25.168Z,2.47
2024-02-26T23:16:29.006Z,2.67
2024-02-26T23:19:34.646Z,2.37
2024-02-26T23:22:45.316Z,2.17
2024-02-26T23:25:47.768Z,2.40
2024-02-26T23:28:50.776Z,2.80
2024-02-26T23:31:53.189Z,2.70
2024-02-26T23:34:56.059Z,2.60
2024-02-26T23:37:58.557Z,2.50
2024-02-26T23:41:02.081Z,2.80
2024-02-26T23:44:04.758Z,2.90
2024-02-26T23:47:07.733Z,2.80
2024-02-26T23:50:10.420Z,2.67
2024-02-26T23:53:13.141Z,2.85
2024-02-26T23:56:15.550Z,2.60
2024-02-26T23:59:20.510Z,2.30
